Terminal Aerodrome Forecast
Issued by NWS Tampa Bay Area, FL

Home | Current Version | Previous Version | Text Only | Print | Product List | Glossary On
Versions: 1 2 3 4 5 6 7 8 9 10 11 12 13 14 15 16 17 18 19 20 21 22 23 24 25 26 27 28 29
000
FTUS42 KTBW 261120
TAFTPA
TAF
KTPA 261120Z 2612/2712 VRB03KT P6SM FEW020 BKN250
     FM261400 10004KT P6SM FEW025 BKN250
     FM261600 23006KT P6SM SCT035 BKN250
     FM261900 27007KT P6SM VCTS SCT040CB SCT100 BKN250
     FM262200 31005KT P6SM VCTS SCT040CB BKN100
     FM270200 VRB03KT P6SM FEW040 SCT100 BKN250=

USA.gov is the U.S. government's official web portal to all federal, state and local government web resources and services.